Time;durP1;ratioP1;P1;durP2;ratioP2;P2;SDS_P1;SDS_P2;PMS_P1;PMS_P2;Temp;Humidity;BMP_temperature;BMP_pressure;BME280_temperature;BME280_humidity;BME280_pressure;Samples;Min_cycle;Max_cycle;Signal;HPM_P1;HPM_P2
2022/07/13 00:00:44;;;;;;;1.90;0.52;;;23.40;88.30;;;;;;5009648;28;20028;-84
2022/07/13 00:03:10;;;;;;;0.40;0.30;;;23.50;88.20;;;;;;5014127;28;20470;-84
2022/07/13 00:05:35;;;;;;;1.35;0.47;;;23.40;88.10;;;;;;4985922;28;20060;-84
2022/07/13 00:08:01;;;;;;;1.92;0.60;;;23.40;88.10;;;;;;5005882;28;20029;-85
2022/07/13 00:10:27;;;;;;;1.00;0.47;;;23.40;88.20;;;;;;5015069;28;20030;-84
2022/07/13 00:12:52;;;;;;;1.33;0.60;;;23.40;88.20;;;;;;4995325;28;20038;-84
2022/07/13 00:15:18;;;;;;;1.02;0.50;;;23.40;88.20;;;;;;5004478;28;20113;-85
2022/07/13 00:17:44;;;;;;;0.47;0.40;;;23.40;88.20;;;;;;5008558;28;20018;-84
2022/07/13 00:20:10;;;;;;;1.17;0.60;;;23.40;88.20;;;;;;5000919;28;20032;-84
2022/07/13 00:22:35;;;;;;;0.40;0.40;;;23.40;88.20;;;;;;4997622;28;20038;-84
2022/07/13 00:25:01;;;;;;;0.60;0.40;;;23.40;88.20;;;;;;4998106;28;20037;-84
2022/07/13 00:27:27;;;;;;;1.40;0.63;;;23.30;88.10;;;;;;5012156;28;20034;-84
2022/07/13 00:29:52;;;;;;;1.45;0.55;;;23.30;88.10;;;;;;4997725;28;20034;-84
2022/07/13 00:32:18;;;;;;;1.70;0.50;;;23.30;88.20;;;;;;5003887;28;20084;-84
2022/07/13 00:34:44;;;;;;;0.85;0.50;;;23.30;88.30;;;;;;4992579;28;20038;-84
2022/07/13 00:37:09;;;;;;;0.65;0.50;;;23.30;88.30;;;;;;5005879;28;20026;-84
2022/07/13 00:39:35;;;;;;;3.20;0.70;;;23.30;88.30;;;;;;5000250;28;20117;-84
2022/07/13 00:42:00;;;;;;;0.65;0.50;;;23.30;88.30;;;;;;4995603;28;20038;-84
2022/07/13 00:44:26;;;;;;;2.17;0.50;;;23.30;88.30;;;;;;4997389;28;20144;-84
2022/07/13 00:46:54;;;;;;;1.42;0.57;;;23.20;88.20;;;;;;5000942;28;20030;-85
2022/07/13 00:49:20;;;;;;;1.20;0.65;;;23.20;88.20;;;;;;4997555;28;20033;-84
2022/07/13 00:51:45;;;;;;;0.95;0.50;;;23.20;88.40;;;;;;5008611;28;20041;-84
2022/07/13 00:54:12;;;;;;;2.70;0.57;;;23.10;88.30;;;;;;5000346;28;20037;-84
2022/07/13 00:56:38;;;;;;;2.10;0.50;;;23.20;88.30;;;;;;4997373;28;20081;-84
2022/07/13 00:59:06;;;;;;;2.03;0.57;;;23.20;88.30;;;;;;4996734;28;20031;-84
2022/07/13 01:01:32;;;;;;;0.63;0.40;;;23.20;88.40;;;;;;5005149;28;20033;-84
2022/07/13 01:03:59;;;;;;;0.70;0.47;;;23.20;88.40;;;;;;5021631;28;20024;-84
2022/07/13 01:06:24;;;;;;;1.77;0.55;;;23.20;88.40;;;;;;4988518;28;20149;-84
2022/07/13 01:08:50;;;;;;;0.80;0.50;;;23.10;88.30;;;;;;4995032;28;20493;-84
2022/07/13 01:11:16;;;;;;;1.13;0.57;;;23.10;88.40;;;;;;5006858;28;20029;-84
2022/07/13 01:13:43;;;;;;;1.25;0.70;;;23.10;88.40;;;;;;4995381;28;20471;-84
2022/07/13 01:16:09;;;;;;;2.58;0.68;;;23.10;88.50;;;;;;4995339;28;20022;-85
2022/07/13 01:18:35;;;;;;;1.00;0.50;;;23.10;88.50;;;;;;4995857;28;20029;-84
2022/07/13 01:21:02;;;;;;;2.22;0.40;;;23.10;88.40;;;;;;5018472;28;20033;-84
2022/07/13 01:23:28;;;;;;;1.58;0.50;;;23.10;88.50;;;;;;5001839;28;20165;-84
2022/07/13 01:25:56;;;;;;;1.95;0.52;;;23.10;88.40;;;;;;5012271;28;20030;-84
2022/07/13 01:28:23;;;;;;;0.63;0.32;;;23.00;88.40;;;;;;5013221;28;20033;-84
2022/07/13 01:30:49;;;;;;;3.40;0.60;;;23.00;88.60;;;;;;5000503;28;20386;-84
2022/07/13 01:33:15;;;;;;;2.25;0.60;;;23.00;88.60;;;;;;5003181;28;20030;-84
2022/07/13 01:35:41;;;;;;;1.13;0.60;;;23.00;88.60;;;;;;4995414;28;20393;-84
2022/07/13 01:38:07;;;;;;;1.40;0.70;;;23.00;88.60;;;;;;5004908;28;20025;-84
2022/07/13 01:40:33;;;;;;;0.90;0.70;;;23.00;88.70;;;;;;4997410;28;20494;-85
2022/07/13 01:42:58;;;;;;;1.48;0.45;;;23.00;88.60;;;;;;4995489;28;20033;-84
2022/07/13 01:45:24;;;;;;;5.75;0.70;;;23.00;88.60;;;;;;4995113;28;20041;-84
2022/07/13 01:47:52;;;;;;;1.00;0.55;;;22.90;88.70;;;;;;4997338;28;20017;-84
2022/07/13 01:50:21;;;;;;;0.80;0.60;;;22.90;88.70;;;;;;4995286;28;20026;-84
2022/07/13 01:52:47;;;;;;;0.90;0.60;;;22.90;88.70;;;;;;4996218;28;20026;-84
2022/07/13 01:55:14;;;;;;;2.22;0.70;;;22.90;88.70;;;;;;5015753;28;20048;-84
2022/07/13 01:57:39;;;;;;;1.35;0.60;;;22.90;88.70;;;;;;5002728;28;20048;-84
2022/07/13 02:00:18;;;;;;;5.88;0.60;;;22.90;88.80;;;;;;5002621;28;20026;-84
2022/07/13 02:02:44;;;;;;;2.45;0.85;;;22.90;88.90;;;;;;5000569;28;20098;-84
2022/07/13 02:05:10;;;;;;;1.40;0.60;;;22.90;88.80;;;;;;4982115;28;20454;-84
2022/07/13 02:07:37;;;;;;;2.28;0.75;;;22.90;88.90;;;;;;4994848;28;20057;-84
2022/07/13 02:10:05;;;;;;;2.15;0.80;;;22.90;88.90;;;;;;5004001;28;20037;-84
2022/07/13 02:12:31;;;;;;;1.52;0.60;;;22.80;88.80;;;;;;4998070;28;20021;-84
2022/07/13 02:14:57;;;;;;;3.30;0.63;;;22.80;88.90;;;;;;5014905;28;20389;-85
2022/07/13 02:17:23;;;;;;;1.75;0.50;;;22.80;88.90;;;;;;5012609;28;20401;-84
2022/07/13 02:19:48;;;;;;;3.33;0.60;;;22.80;89.00;;;;;;5002229;28;20017;-85
2022/07/13 02:22:14;;;;;;;2.15;0.57;;;22.80;88.90;;;;;;4997541;28;20050;-84
2022/07/13 02:24:40;;;;;;;0.85;0.63;;;22.80;88.90;;;;;;4998921;28;20026;-84
2022/07/13 02:27:06;;;;;;;1.02;0.60;;;22.70;89.00;;;;;;5027309;28;20037;-84
2022/07/13 02:29:32;;;;;;;1.90;0.75;;;22.80;89.00;;;;;;5005089;28;20042;-84
2022/07/13 02:31:58;;;;;;;2.42;0.68;;;22.80;89.10;;;;;;5005959;28;20482;-84
2022/07/13 02:34:27;;;;;;;6.25;0.90;;;22.80;89.10;;;;;;4997912;28;20034;-85
2022/07/13 02:36:53;;;;;;;0.90;0.50;;;22.70;89.00;;;;;;5015283;28;20026;-84
2022/07/13 02:39:19;;;;;;;1.13;0.50;;;22.70;89.10;;;;;;5004771;28;20021;-84
2022/07/13 02:41:45;;;;;;;1.90;0.80;;;22.70;89.10;;;;;;5019691;28;20017;-84
2022/07/13 02:44:11;;;;;;;1.20;0.60;;;22.70;89.20;;;;;;5012070;28;20025;-84
2022/07/13 02:46:36;;;;;;;0.85;0.60;;;22.70;89.20;;;;;;5009414;28;20026;-84
2022/07/13 02:49:02;;;;;;;1.63;0.60;;;22.70;89.30;;;;;;5003409;28;20551;-84
2022/07/13 02:51:28;;;;;;;1.05;0.50;;;22.70;89.30;;;;;;5000013;28;20362;-84
2022/07/13 02:53:53;;;;;;;1.15;0.50;;;22.70;89.40;;;;;;4988164;28;20032;-84
2022/07/13 02:56:19;;;;;;;1.02;0.75;;;22.60;89.30;;;;;;5001848;28;20116;-84
2022/07/13 02:58:45;;;;;;;1.73;0.85;;;22.60;89.30;;;;;;5028969;28;20018;-84
2022/07/13 03:01:11;;;;;;;2.15;0.70;;;22.60;89.30;;;;;;5006121;28;20136;-84
2022/07/13 03:03:37;;;;;;;0.77;0.50;;;22.60;89.40;;;;;;4999414;28;20072;-84
2022/07/13 03:06:03;;;;;;;2.55;0.60;;;22.60;89.50;;;;;;5002157;28;20494;-84
2022/07/13 03:08:28;;;;;;;1.27;0.43;;;22.60;89.60;;;;;;5004655;28;20049;-84
2022/07/13 03:10:54;;;;;;;1.30;0.80;;;22.60;89.60;;;;;;5017463;28;20022;-84
2022/07/13 03:13:20;;;;;;;1.88;0.73;;;22.60;89.50;;;;;;4987242;28;20060;-84
2022/07/13 03:15:45;;;;;;;3.03;0.73;;;22.60;89.50;;;;;;4999811;28;20033;-84
2022/07/13 03:18:11;;;;;;;2.15;0.80;;;22.60;89.50;;;;;;4998982;28;20033;-84
2022/07/13 03:20:38;;;;;;;1.50;0.50;;;22.60;89.50;;;;;;5019372;28;20022;-84
2022/07/13 03:23:04;;;;;;;1.42;0.60;;;22.50;89.40;;;;;;4996658;28;20097;-84
2022/07/13 03:25:29;;;;;;;0.70;0.52;;;22.60;89.60;;;;;;5010139;28;20025;-84
2022/07/13 03:27:55;;;;;;;1.48;0.70;;;22.50;89.70;;;;;;5002369;28;20022;-84
2022/07/13 03:30:21;;;;;;;2.78;0.65;;;22.50;89.60;;;;;;4996709;28;20478;-84
2022/07/13 03:32:48;;;;;;;1.30;0.73;;;22.50;89.60;;;;;;5012465;28;20077;-84
2022/07/13 03:35:14;;;;;;;1.48;0.60;;;22.50;89.70;;;;;;5000209;28;20033;-84
2022/07/13 03:37:40;;;;;;;5.93;0.70;;;22.50;89.70;;;;;;5002198;28;20053;-84
2022/07/13 03:40:06;;;;;;;1.23;0.60;;;22.50;89.70;;;;;;5000058;28;20064;-84
2022/07/13 03:42:34;;;;;;;1.23;0.50;;;22.40;89.70;;;;;;4997829;28;20026;-84
2022/07/13 03:45:00;;;;;;;1.95;0.70;;;22.40;89.80;;;;;;5019024;28;20493;-84
2022/07/13 03:47:26;;;;;;;2.47;1.25;;;22.40;89.70;;;;;;5003498;28;20474;-84
2022/07/13 03:49:51;;;;;;;2.85;1.30;;;22.40;89.70;;;;;;4997967;28;20033;-85
2022/07/13 03:52:17;;;;;;;1.67;0.90;;;22.40;89.70;;;;;;5022864;28;20036;-84
2022/07/13 03:54:43;;;;;;;1.30;0.90;;;22.40;89.90;;;;;;5012245;28;20029;-84
2022/07/13 03:57:08;;;;;;;3.75;0.70;;;22.40;89.80;;;;;;4999037;28;20034;-84
2022/07/13 03:59:34;;;;;;;1.48;0.80;;;22.40;89.80;;;;;;5003862;28;20441;-84
2022/07/13 04:02:00;;;;;;;2.20;0.60;;;22.40;89.90;;;;;;4996661;28;20030;-84
2022/07/13 04:04:27;;;;;;;2.47;0.70;;;22.40;90.00;;;;;;5004369;28;20116;-84
2022/07/13 04:06:53;;;;;;;0.88;0.65;;;22.40;89.90;;;;;;4998994;28;20124;-84
2022/07/13 04:09:19;;;;;;;2.17;0.90;;;22.30;89.90;;;;;;5004119;28;20096;-84
2022/07/13 04:11:45;;;;;;;1.92;0.68;;;22.30;90.00;;;;;;5006629;28;20030;-84
2022/07/13 04:14:10;;;;;;;1.35;0.70;;;22.30;89.90;;;;;;5023716;28;20061;-84
2022/07/13 04:16:36;;;;;;;3.00;0.80;;;22.30;89.90;;;;;;4997571;28;20073;-84
2022/07/13 04:19:02;;;;;;;1.30;0.70;;;22.30;90.00;;;;;;5007535;28;20064;-84
2022/07/13 04:21:27;;;;;;;1.15;0.63;;;22.30;90.00;;;;;;4997285;28;20029;-84
2022/07/13 04:23:53;;;;;;;0.90;0.80;;;22.30;90.00;;;;;;4995908;28;20061;-84
2022/07/13 04:26:19;;;;;;;1.65;0.77;;;22.30;90.00;;;;;;5008621;28;20077;-84
2022/07/13 04:28:45;;;;;;;0.75;0.52;;;22.30;90.00;;;;;;4998261;28;20027;-84
2022/07/13 04:31:10;;;;;;;2.75;0.82;;;22.30;90.00;;;;;;5003409;28;20026;-84
2022/07/13 04:33:36;;;;;;;1.02;0.60;;;22.30;90.00;;;;;;4995499;28;20056;-84
2022/07/13 04:36:02;;;;;;;1.27;0.70;;;22.20;90.10;;;;;;5017811;28;20047;-84
2022/07/13 04:38:27;;;;;;;2.35;0.90;;;22.20;90.10;;;;;;4996137;28;20025;-84
2022/07/13 04:40:53;;;;;;;2.00;0.55;;;22.20;90.00;;;;;;4997689;28;20041;-84
2022/07/13 04:43:19;;;;;;;1.40;0.70;;;22.20;90.10;;;;;;5005261;28;20029;-84
2022/07/13 04:45:45;;;;;;;1.30;0.60;;;22.30;90.10;;;;;;5001199;28;20548;-84
2022/07/13 04:48:10;;;;;;;1.83;0.80;;;22.30;90.20;;;;;;5000253;28;20473;-84
2022/07/13 04:50:36;;;;;;;2.70;0.65;;;22.20;90.10;;;;;;5006786;28;20419;-84
2022/07/13 04:53:02;;;;;;;1.05;0.60;;;22.30;90.20;;;;;;4994802;28;20026;-84
2022/07/13 04:55:28;;;;;;;1.33;0.50;;;22.20;90.20;;;;;;5013829;28;20593;-84
2022/07/13 04:57:55;;;;;;;1.20;0.50;;;22.30;90.20;;;;;;5006565;28;20108;-84
2022/07/13 05:00:22;;;;;;;1.10;0.52;;;22.30;90.30;;;;;;5000617;28;20029;-84
2022/07/13 05:02:47;;;;;;;0.98;0.50;;;22.20;90.20;;;;;;5001265;28;20030;-84
2022/07/13 05:05:13;;;;;;;0.73;0.60;;;22.20;90.30;;;;;;5024550;28;20100;-84
2022/07/13 05:07:39;;;;;;;0.85;0.60;;;22.20;90.30;;;;;;4995368;28;20025;-84
2022/07/13 05:10:06;;;;;;;1.40;0.70;;;22.20;90.40;;;;;;4998779;28;20061;-84
2022/07/13 05:12:34;;;;;;;2.15;0.60;;;22.20;90.30;;;;;;4992011;28;20025;-84
2022/07/13 05:14:59;;;;;;;3.45;0.70;;;22.20;90.40;;;;;;4995334;28;20029;-84
2022/07/13 05:17:25;;;;;;;1.30;0.60;;;22.30;90.40;;;;;;5012781;28;20733;-84
2022/07/13 05:19:50;;;;;;;1.08;0.50;;;22.20;90.40;;;;;;5015942;28;20580;-84
2022/07/13 05:22:16;;;;;;;2.70;0.60;;;22.30;90.50;;;;;;5026573;28;20037;-84
2022/07/13 05:24:43;;;;;;;0.95;0.70;;;22.20;90.50;;;;;;5019398;28;20073;-84
2022/07/13 05:27:11;;;;;;;0.70;0.60;;;22.20;90.50;;;;;;5003538;28;20157;-84
2022/07/13 05:29:37;;;;;;;1.42;0.50;;;22.20;90.50;;;;;;5018707;28;20029;-84
2022/07/13 05:32:03;;;;;;;1.77;0.73;;;22.30;90.60;;;;;;4994413;28;20409;-85
2022/07/13 05:34:29;;;;;;;1.10;0.60;;;22.20;90.60;;;;;;4996683;28;20401;-84
2022/07/13 05:36:55;;;;;;;1.17;0.70;;;22.20;90.70;;;;;;5015454;28;20022;-84
2022/07/13 05:39:21;;;;;;;1.90;0.60;;;22.30;90.70;;;;;;5004673;28;20030;-85
2022/07/13 05:41:46;;;;;;;0.82;0.50;;;22.20;90.70;;;;;;5014902;28;20022;-84
2022/07/13 05:44:15;;;;;;;1.15;0.63;;;22.30;90.80;;;;;;5011105;28;20037;-84
2022/07/13 05:46:40;;;;;;;1.05;0.73;;;22.30;90.80;;;;;;4998924;28;20100;-84
2022/07/13 05:49:06;;;;;;;3.33;0.90;;;22.20;90.80;;;;;;4994667;28;20030;-84
2022/07/13 05:51:32;;;;;;;0.63;0.57;;;22.20;90.80;;;;;;4996712;28;20030;-84
2022/07/13 05:53:57;;;;;;;0.60;0.50;;;22.20;90.80;;;;;;5000637;28;20116;-84
2022/07/13 05:56:23;;;;;;;0.70;0.60;;;22.20;90.90;;;;;;5014979;28;20036;-84
2022/07/13 05:58:49;;;;;;;0.93;0.60;;;22.30;91.00;;;;;;5009440;28;20454;-84
2022/07/13 06:01:14;;;;;;;1.10;0.60;;;22.20;91.00;;;;;;5017643;28;20021;-83
2022/07/13 06:03:40;;;;;;;1.75;0.70;;;22.20;91.10;;;;;;5002661;28;20121;-83
2022/07/13 06:06:06;;;;;;;1.25;0.57;;;22.20;91.10;;;;;;5007830;28;20109;-83
2022/07/13 06:08:31;;;;;;;1.08;0.70;;;22.20;91.20;;;;;;5005853;28;20038;-83
2022/07/13 06:10:57;;;;;;;2.20;0.50;;;22.20;91.20;;;;;;5013659;28;20053;-83
2022/07/13 06:13:23;;;;;;;1.35;0.60;;;22.20;91.20;;;;;;4998556;28;20034;-83
2022/07/13 06:15:48;;;;;;;1.70;0.70;;;22.20;91.30;;;;;;5029843;28;20017;-83
2022/07/13 06:18:14;;;;;;;2.53;0.70;;;22.20;91.30;;;;;;5004297;28;20030;-83
2022/07/13 06:20:40;;;;;;;1.58;0.65;;;22.20;91.30;;;;;;5010681;28;20030;-83
2022/07/13 06:23:09;;;;;;;0.98;0.70;;;22.20;91.30;;;;;;5018986;28;20125;-83
2022/07/13 06:25:38;;;;;;;1.27;0.60;;;22.20;91.40;;;;;;5000010;28;20385;-83
2022/07/13 06:28:05;;;;;;;3.08;0.60;;;22.20;91.40;;;;;;5008456;28;20060;-83
2022/07/13 06:30:32;;;;;;;1.38;0.70;;;22.30;91.60;;;;;;5009227;28;20037;-83
2022/07/13 06:32:57;;;;;;;2.90;0.75;;;22.20;91.60;;;;;;5019149;28;20029;-83
2022/07/13 06:35:23;;;;;;;1.83;0.50;;;22.30;92.00;;;;;;5009193;28;20387;-83
2022/07/13 06:37:49;;;;;;;1.00;0.70;;;22.30;91.50;;;;;;4999686;28;20022;-84
2022/07/13 06:40:15;;;;;;;0.90;0.70;;;22.30;91.50;;;;;;5007063;28;20381;-83
2022/07/13 06:42:40;;;;;;;1.75;0.52;;;22.30;91.80;;;;;;5001102;28;20061;-83
2022/07/13 06:45:06;;;;;;;1.67;0.70;;;22.40;91.50;;;;;;4998392;28;20033;-83
2022/07/13 06:47:32;;;;;;;2.05;0.57;;;22.40;91.70;;;;;;4997630;28;20021;-83
2022/07/13 06:49:58;;;;;;;0.90;0.50;;;22.40;91.50;;;;;;5015584;28;20084;-83
2022/07/13 06:52:24;;;;;;;1.38;0.55;;;22.50;91.60;;;;;;5003860;28;20041;-83
2022/07/13 06:54:49;;;;;;;3.22;0.75;;;22.50;91.50;;;;;;4997120;28;20059;-83
2022/07/13 06:57:15;;;;;;;0.90;0.70;;;22.50;91.40;;;;;;5017660;28;20060;-83
2022/07/13 06:59:42;;;;;;;1.77;0.70;;;22.60;91.50;;;;;;4998983;28;20094;-83
2022/07/13 07:02:08;;;;;;;1.92;0.47;;;22.60;91.70;;;;;;5000257;28;20022;-83
2022/07/13 07:04:34;;;;;;;1.38;0.70;;;22.60;91.70;;;;;;5009640;28;20486;-83
2022/07/13 07:07:00;;;;;;;1.20;0.60;;;22.60;91.80;;;;;;5017644;28;20034;-83
2022/07/13 07:09:26;;;;;;;1.83;0.73;;;22.60;91.80;;;;;;4998281;28;20025;-83
2022/07/13 07:11:52;;;;;;;0.98;0.70;;;22.70;92.00;;;;;;5005260;28;20091;-83
2022/07/13 07:14:17;;;;;;;5.85;0.70;;;22.70;91.90;;;;;;4999091;28;20022;-83
2022/07/13 07:16:43;;;;;;;3.70;0.70;;;22.70;91.70;;;;;;4997288;28;20036;-83
2022/07/13 07:19:09;;;;;;;1.80;0.63;;;22.80;91.70;;;;;;4997419;28;20014;-83
2022/07/13 07:21:36;;;;;;;3.78;0.50;;;22.80;91.60;;;;;;4996709;28;20050;-83
2022/07/13 07:24:03;;;;;;;0.77;0.50;;;22.80;91.50;;;;;;5014747;28;20134;-83
2022/07/13 07:26:30;;;;;;;0.90;0.40;;;22.90;91.20;;;;;;4998633;28;20033;-83
2022/07/13 07:28:56;;;;;;;6.22;0.50;;;23.00;91.10;;;;;;5014118;28;20465;-83
2022/07/13 07:31:22;;;;;;;7.18;0.77;;;23.10;90.40;;;;;;4999940;28;20037;-83
2022/07/13 07:33:48;;;;;;;2.03;0.60;;;23.30;90.40;;;;;;5006153;28;20033;-83
2022/07/13 07:36:14;;;;;;;2.17;0.30;;;23.60;90.40;;;;;;5009369;28;20026;-84
2022/07/13 07:38:39;;;;;;;2.95;0.98;;;23.70;89.70;;;;;;5019128;28;20018;-83
2022/07/13 07:41:05;;;;;;;3.33;0.60;;;23.60;88.40;;;;;;5012949;28;20460;-83
2022/07/13 07:43:31;;;;;;;1.45;0.50;;;23.50;89.00;;;;;;5014488;28;20034;-83
2022/07/13 07:45:57;;;;;;;2.97;0.45;;;23.40;89.10;;;;;;5015246;28;20045;-84
2022/07/13 07:48:22;;;;;;;1.95;0.32;;;23.40;89.30;;;;;;4999051;28;20038;-83
2022/07/13 07:50:48;;;;;;;3.72;0.52;;;23.40;89.00;;;;;;5000975;28;20033;-83
2022/07/13 07:53:13;;;;;;;3.88;0.55;;;23.40;89.10;;;;;;4995855;28;20022;-83
2022/07/13 07:55:39;;;;;;;4.50;0.60;;;23.40;89.50;;;;;;5011810;28;20152;-83
2022/07/13 07:58:05;;;;;;;2.63;0.40;;;23.40;89.70;;;;;;4997010;28;20085;-83
2022/07/13 08:00:31;;;;;;;2.85;0.47;;;23.40;89.40;;;;;;4994569;28;20026;-83
2022/07/13 08:03:02;;;;;;;2.60;0.50;;;23.40;89.70;;;;;;4996605;28;20018;-83
2022/07/13 08:05:29;;;;;;;3.25;0.40;;;23.40;89.80;;;;;;4997886;28;20477;-84
2022/07/13 08:07:55;;;;;;;1.98;0.40;;;23.40;89.40;;;;;;4993076;28;20544;-83
2022/07/13 08:10:20;;;;;;;0.43;0.30;;;23.40;89.10;;;;;;5011620;28;20025;-83
2022/07/13 08:12:46;;;;;;;0.70;0.40;;;23.50;89.40;;;;;;5008384;28;20030;-83
2022/07/13 08:15:11;;;;;;;3.50;0.60;;;23.50;89.30;;;;;;5006012;28;20034;-83
2022/07/13 08:17:39;;;;;;;1.13;0.43;;;23.50;89.50;;;;;;5005616;28;20072;-83
2022/07/13 08:20:08;;;;;;;3.22;0.50;;;23.60;89.00;;;;;;4995730;28;20034;-83
2022/07/13 08:22:33;;;;;;;0.93;0.40;;;23.60;89.30;;;;;;4995238;28;20490;-83
2022/07/13 08:24:59;;;;;;;0.73;0.47;;;23.60;89.00;;;;;;4993080;28;20121;-83
2022/07/13 08:27:26;;;;;;;0.57;0.45;;;23.60;88.90;;;;;;5020893;28;20477;-83
2022/07/13 08:29:52;;;;;;;1.58;0.57;;;23.60;89.00;;;;;;5018373;28;20030;-83
2022/07/13 08:32:17;;;;;;;1.80;0.50;;;23.70;88.70;;;;;;4995494;28;20525;-82
2022/07/13 08:40:13;;;;;;;1.05;0.50;;;23.70;88.70;;;;;;5011460;28;20089;-83
2022/07/13 08:42:40;;;;;;;0.38;0.32;;;23.70;88.60;;;;;;5012545;28;20470;-83
2022/07/13 08:45:06;;;;;;;1.20;0.43;;;23.80;88.70;;;;;;4991788;28;20022;-83
2022/07/13 08:47:35;;;;;;;1.90;0.45;;;23.80;88.40;;;;;;4993565;28;20036;-83
2022/07/13 08:50:04;;;;;;;0.98;0.50;;;23.80;88.40;;;;;;4994795;28;20544;-83
2022/07/13 08:52:30;;;;;;;0.68;0.52;;;23.90;88.10;;;;;;5010469;28;20051;-83
2022/07/13 08:54:58;;;;;;;0.60;0.38;;;23.90;88.00;;;;;;5015198;28;20530;-83
2022/07/13 08:57:24;;;;;;;1.55;0.47;;;23.90;88.00;;;;;;5009846;28;20030;-83
2022/07/13 08:59:51;;;;;;;0.70;0.30;;;23.90;87.90;;;;;;5012722;28;20510;-83
2022/07/13 09:02:17;;;;;;;3.17;0.50;;;24.00;88.10;;;;;;4994217;28;20037;-83
2022/07/13 09:08:06;;;;;;;0.85;0.47;;;24.00;87.50;;;;;;5010811;28;20064;-83
2022/07/13 09:10:51;;;;;;;1.02;0.50;;;24.00;87.90;;;;;;4994628;28;20048;-83
2022/07/13 09:13:35;;;;;;;0.68;0.50;;;24.10;87.80;;;;;;4987960;28;20026;-84
2022/07/13 09:16:17;;;;;;;0.68;0.40;;;24.10;87.80;;;;;;4987086;28;20037;-83
2022/07/13 09:24:01;;;;;;;0.70;0.40;;;24.20;87.30;;;;;;5016959;23;20058;-91
2022/07/13 09:26:56;;;;;;;1.85;0.50;;;24.20;87.20;;;;;;4991386;28;20023;-90
2022/07/13 09:29:22;;;;;;;0.57;0.40;;;24.20;86.90;;;;;;4976131;28;20477;-91
2022/07/13 09:31:55;;;;;;;2.80;0.50;;;24.30;86.80;;;;;;4975995;28;20034;-92
2022/07/13 09:34:42;;;;;;;0.85;0.40;;;24.30;86.80;;;;;;4989013;28;20022;-91
2022/07/13 09:37:09;;;;;;;0.70;0.40;;;24.30;86.80;;;;;;4976783;28;20069;-89
2022/07/13 09:39:35;;;;;;;0.68;0.45;;;24.30;86.40;;;;;;4992603;28;20038;-91
2022/07/13 09:42:00;;;;;;;0.75;0.38;;;24.40;86.20;;;;;;4991708;28;20166;-83
2022/07/13 09:47:12;;;;;;;0.63;0.20;;;25.50;70.60;;;;;;4991766;28;20169;-89
2022/07/13 09:49:42;;;;;;;7.90;0.65;;;26.00;70.20;;;;;;4978426;28;20523;-89
2022/07/13 09:52:09;;;;;;;7.30;0.50;;;26.40;67.40;;;;;;4968041;28;20035;-88
2022/07/13 09:54:38;;;;;;;2.13;0.45;;;26.30;69.60;;;;;;4993140;28;20030;-89
2022/07/13 09:57:13;;;;;;;3.95;0.47;;;26.00;70.70;;;;;;4987662;28;20045;-89
2022/07/13 09:59:41;;;;;;;2.95;0.43;;;25.80;72.00;;;;;;4992035;28;20422;-89
2022/07/13 10:02:07;;;;;;;4.47;0.38;;;25.60;72.70;;;;;;4978854;28;20052;-89
2022/07/13 10:04:35;;;;;;;2.03;0.43;;;25.50;73.70;;;;;;4976901;28;20080;-88
2022/07/13 10:07:01;;;;;;;3.60;0.75;;;25.40;74.10;;;;;;4971805;28;20048;-88
2022/07/13 10:09:31;;;;;;;2.65;0.30;;;25.30;74.60;;;;;;4993227;28;20549;-88
2022/07/13 10:11:57;;;;;;;4.07;0.50;;;25.20;74.70;;;;;;4986918;28;20033;-88
2022/07/13 10:14:24;;;;;;;0.73;0.40;;;25.20;75.60;;;;;;4975920;28;20058;-88
2022/07/13 10:16:52;;;;;;;1.08;0.30;;;25.10;75.90;;;;;;4977337;28;20100;-88
2022/07/13 10:19:19;;;;;;;0.65;0.30;;;25.10;75.60;;;;;;4974624;28;20031;-89
2022/07/13 10:22:05;;;;;;;1.23;0.60;;;25.10;76.30;;;;;;4977488;28;20030;-89
2022/07/13 10:24:31;;;;;;;1.58;0.60;;;25.10;76.50;;;;;;4987484;28;20037;-88
2022/07/13 10:27:18;;;;;;;3.47;0.50;;;25.00;76.60;;;;;;4971914;28;20023;-89
2022/07/13 10:29:50;;;;;;;0.98;0.30;;;25.00;76.70;;;;;;4964174;28;20026;-88
2022/07/13 10:32:20;;;;;;;1.17;0.43;;;25.00;76.60;;;;;;4976659;28;20031;-88
2022/07/13 10:35:00;;;;;;;1.65;0.50;;;25.00;76.50;;;;;;4970189;28;20389;-88
2022/07/13 10:37:26;;;;;;;0.60;0.30;;;25.00;77.00;;;;;;4971213;28;20505;-88
2022/07/13 10:40:11;;;;;;;1.33;0.30;;;25.00;77.30;;;;;;4968754;28;20030;-88
2022/07/13 10:42:57;;;;;;;2.10;0.40;;;25.00;77.40;;;;;;4984264;28;20138;-90
2022/07/13 10:45:43;;;;;;;0.85;0.50;;;25.00;77.30;;;;;;4980643;28;20393;-88
2022/07/13 10:48:13;;;;;;;1.00;0.50;;;25.00;77.40;;;;;;4977741;28;20062;-89
2022/07/13 10:50:51;;;;;;;0.90;0.50;;;25.00;77.30;;;;;;4974783;28;20026;-88
2022/07/13 10:53:17;;;;;;;0.40;0.30;;;25.10;77.20;;;;;;4959681;28;20042;-88
2022/07/13 10:55:47;;;;;;;1.30;0.45;;;25.10;77.10;;;;;;4976974;28;20046;-88
2022/07/13 10:58:31;;;;;;;1.38;0.40;;;25.10;77.10;;;;;;4979609;28;20031;-88
2022/07/13 11:00:58;;;;;;;1.27;0.10;;;25.10;76.60;;;;;;4976290;28;20496;-87
2022/07/13 11:03:35;;;;;;;1.20;0.40;;;25.10;77.30;;;;;;4965748;28;20027;-88
2022/07/13 11:06:09;;;;;;;0.63;0.50;;;25.10;76.50;;;;;;4964247;28;20474;-89
2022/07/13 11:08:35;;;;;;;0.47;0.40;;;25.10;76.50;;;;;;4984806;28;20019;-89
2022/07/13 11:11:12;;;;;;;5.05;0.50;;;25.10;76.90;;;;;;4971071;28;20030;-88
2022/07/13 11:13:39;;;;;;;1.67;0.75;;;25.10;76.50;;;;;;4983961;28;20140;-88
2022/07/13 11:16:07;;;;;;;1.30;0.45;;;25.20;77.00;;;;;;4994941;28;20026;-88
2022/07/13 11:18:35;;;;;;;1.15;0.50;;;25.20;76.70;;;;;;4981421;28;20025;-88
2022/07/13 11:21:14;;;;;;;0.75;0.40;;;25.20;76.20;;;;;;4986511;28;20453;-88
2022/07/13 11:26:53;;;;;;;1.27;0.38;;;25.20;76.40;;;;;;4976649;28;20042;-86
2022/07/13 11:29:40;;;;;;;0.70;0.40;;;25.20;76.10;;;;;;4973507;28;20026;-87
2022/07/13 11:32:07;;;;;;;1.27;0.40;;;25.20;76.30;;;;;;4975202;28;20031;-87
2022/07/13 11:34:34;;;;;;;2.58;0.50;;;25.20;75.50;;;;;;4975295;28;20037;-87
2022/07/13 11:37:01;;;;;;;0.30;0.30;;;25.20;75.00;;;;;;4963945;28;20220;-88
2022/07/13 11:39:29;;;;;;;0.57;0.40;;;25.20;74.50;;;;;;4965052;28;20118;-88
2022/07/13 11:41:57;;;;;;;0.80;0.45;;;25.20;75.20;;;;;;4984238;28;20030;-87
2022/07/13 11:44:30;;;;;;;2.33;0.40;;;25.20;75.70;;;;;;4975214;28;20034;-87
2022/07/13 11:46:57;;;;;;;0.80;0.40;;;25.20;76.00;;;;;;4978341;28;20033;-88
2022/07/13 11:49:24;;;;;;;0.43;0.40;;;25.30;76.20;;;;;;4958719;28;20085;-88
2022/07/13 11:51:51;;;;;;;0.75;0.30;;;25.30;76.10;;;;;;4969882;28;20125;-88
2022/07/13 11:54:23;;;;;;;0.57;0.22;;;25.30;76.70;;;;;;4957827;28;20081;-88
2022/07/13 11:56:51;;;;;;;0.38;0.22;;;25.30;74.30;;;;;;4975322;28;20046;-88
2022/07/13 11:59:34;;;;;;;0.20;0.20;;;25.30;75.10;;;;;;4981331;28;20047;-88
2022/07/13 12:02:02;;;;;;;1.02;0.30;;;25.30;74.00;;;;;;4960978;28;20156;-88
2022/07/13 12:04:28;;;;;;;0.70;0.45;;;25.30;74.50;;;;;;4978433;28;20076;-87
2022/07/13 12:07:30;;;;;;;0.98;0.38;;;25.40;73.90;;;;;;4976167;28;20081;-87
2022/07/13 12:09:56;;;;;;;0.50;0.30;;;25.40;75.20;;;;;;4888972;29;20088;-87
2022/07/13 12:12:27;;;;;;;0.40;0.40;;;25.40;75.10;;;;;;4945169;28;20279;-85
2022/07/13 12:14:54;;;;;;;0.43;0.30;;;25.50;74.90;;;;;;4979834;28;20038;-88
2022/07/13 12:17:21;;;;;;;0.80;0.22;;;25.50;75.10;;;;;;4962613;28;20023;-88
2022/07/13 12:19:46;;;;;;;1.75;0.30;;;25.50;74.90;;;;;;4976291;28;20046;-88
2022/07/13 12:22:12;;;;;;;0.40;0.30;;;25.60;74.80;;;;;;4958346;28;20039;-88
2022/07/13 12:24:44;;;;;;;1.67;0.40;;;25.60;74.40;;;;;;4959543;28;20058;-89
2022/07/13 12:27:26;;;;;;;0.35;0.28;;;25.60;74.10;;;;;;4962035;28;20045;-89
2022/07/13 12:30:09;;;;;;;0.20;0.20;;;25.70;74.40;;;;;;4976519;28;20031;-89
2022/07/13 12:32:57;;;;;;;0.40;0.20;;;25.80;73.70;;;;;;4976875;28;20074;-89
2022/07/13 12:35:27;;;;;;;0.20;0.10;;;25.90;73.00;;;;;;4981788;28;20034;-87
2022/07/13 12:37:54;;;;;;;0.20;0.20;;;25.90;72.40;;;;;;4957465;28;20054;-88
2022/07/13 12:40:39;;;;;;;0.70;0.40;;;26.00;72.80;;;;;;4974694;28;20033;-88
2022/07/13 12:43:18;;;;;;;0.43;0.22;;;26.00;72.00;;;;;;4970067;28;20033;-87
2022/07/13 12:45:49;;;;;;;0.90;0.20;;;26.00;73.10;;;;;;4975033;28;20027;-88
2022/07/13 12:48:16;;;;;;;0.82;0.30;;;26.00;73.50;;;;;;4984965;28;20497;-87
2022/07/13 12:50:53;;;;;;;0.85;0.30;;;25.90;73.10;;;;;;4965478;28;20209;-87
2022/07/13 12:53:18;;;;;;;0.22;0.20;;;25.90;73.00;;;;;;4974229;28;20110;-87
2022/07/13 12:55:54;;;;;;;1.30;0.28;;;25.80;72.70;;;;;;4974480;28;20195;-87
2022/07/13 12:58:39;;;;;;;0.65;0.30;;;25.80;72.70;;;;;;4960620;28;20117;-87
2022/07/13 13:01:05;;;;;;;0.30;0.22;;;25.70;72.80;;;;;;4970252;28;20034;-87
2022/07/13 13:03:30;;;;;;;1.20;0.50;;;25.70;73.40;;;;;;4981906;28;20031;-87
2022/07/13 13:05:56;;;;;;;1.77;0.40;;;25.60;73.70;;;;;;4972133;28;20030;-87
2022/07/13 13:08:21;;;;;;;0.90;0.22;;;25.60;73.90;;;;;;4982602;28;20023;-87
2022/07/13 13:10:47;;;;;;;2.75;0.45;;;25.60;73.90;;;;;;4968596;28;20081;-87